Bella Bella, Canada
Current Conditions -  °F | °C
As of 5:00 AM on Thursday 27 Nov 2014 (Local Time) from CYZT Reporting Station
Light Rain Light Rain  
Wind Chill: 46°   Ceiling: 2300
Heat Index: 48°   Visibility: 8mi
Dew Point: 48°   Wind: 5mph
Humidity: 100%   Direction: 150°SSE
Pressure: 29.55"   Gusts: NA
Location:  52.15°N, 128.13°W
Report Text: CYZT 271300Z 15004KT 8SM -RA FEW004 BKN023 OVC040 09/09 A2955 RMK SF1SC4SC3 SLP005
Loading
Personal Weather Stations






























Interactive Weather Map New forecast layout! Learn more

10-Day Weather Forecast

Advertisements
Track Severe Weather on mobile